createdAt,value
2023-02-13T00:00:39.278Z,6.3
2023-02-13T00:03:41.312Z,5.4
2023-02-13T00:06:43.190Z,5.5
2023-02-13T00:09:45.141Z,6.1
2023-02-13T00:12:47.100Z,5.6
2023-02-13T00:15:49.069Z,5.6
2023-02-13T00:18:51.012Z,5.8
2023-02-13T00:21:52.973Z,6
2023-02-13T00:24:54.967Z,5.7
2023-02-13T00:27:56.911Z,6.3
2023-02-13T00:30:59.273Z,6.2
2023-02-13T00:34:00.807Z,6.6
2023-02-13T00:37:02.788Z,7.2
2023-02-13T00:40:04.751Z,6.1
2023-02-13T00:43:06.707Z,7
2023-02-13T00:46:08.677Z,7.3
2023-02-13T00:49:10.625Z,6.8
2023-02-13T00:52:12.597Z,6.6
2023-02-13T00:55:14.553Z,6.6
2023-02-13T00:58:16.518Z,6.8
2023-02-13T01:01:18.624Z,6.8
2023-02-13T01:04:20.436Z,7.1
2023-02-13T01:07:22.403Z,6.6
2023-02-13T01:10:24.346Z,8.3
2023-02-13T01:13:26.356Z,8.4
2023-02-13T01:16:28.337Z,7.6
2023-02-13T01:19:30.237Z,7.8
2023-02-13T01:22:32.190Z,8.8
2023-02-13T01:25:34.147Z,8.5
2023-02-13T01:28:36.169Z,8.8
2023-02-13T01:31:38.223Z,8.2
2023-02-13T01:34:40.068Z,8
2023-02-13T01:37:42.081Z,7.2
2023-02-13T01:40:44.157Z,6.7
2023-02-13T01:43:45.951Z,6.3
2023-02-13T01:46:47.957Z,6.7
2023-02-13T01:49:49.890Z,6.1
2023-02-13T01:52:51.834Z,7.6
2023-02-13T01:55:53.811Z,7.5
2023-02-13T01:58:55.763Z,7
2023-02-13T02:01:57.916Z,7.3
2023-02-13T02:04:59.685Z,8.5
2023-02-13T02:08:01.651Z,8.1
2023-02-13T02:11:03.625Z,8.2
2023-02-13T02:14:05.555Z,9.4
2023-02-13T02:17:07.525Z,9.5
2023-02-13T02:20:09.483Z,9.7
2023-02-13T02:23:11.449Z,8.8
2023-02-13T02:26:13.442Z,9.3
2023-02-13T02:29:15.393Z,9
2023-02-13T02:32:17.368Z,9.6
2023-02-13T02:35:19.325Z,8.8
2023-02-13T02:38:21.327Z,9.5
2023-02-13T02:41:23.255Z,9.2
2023-02-13T02:44:25.212Z,8.2
2023-02-13T02:47:27.198Z,10
2023-02-13T02:50:29.116Z,11.9
2023-02-13T02:53:31.102Z,11.4
2023-02-13T02:56:33.061Z,10.1
2023-02-13T02:59:35.023Z,11.6
2023-02-13T03:02:37.008Z,9.5
2023-02-13T03:05:38.959Z,11.1
2023-02-13T03:08:41.006Z,10.1
2023-02-13T03:11:42.872Z,9.2
2023-02-13T03:14:44.830Z,10
2023-02-13T03:17:46.783Z,10.5
2023-02-13T03:20:48.737Z,10.8
2023-02-13T03:23:50.701Z,10.6
2023-02-13T03:26:52.677Z,9.5
2023-02-13T03:29:54.622Z,9.1
2023-02-13T03:32:56.575Z,9.6
2023-02-13T03:35:58.547Z,11
2023-02-13T03:39:00.503Z,10.7
2023-02-13T03:42:02.462Z,9.8
2023-02-13T03:45:04.421Z,11.4
2023-02-13T03:48:06.387Z,11.4
2023-02-13T03:51:08.346Z,10.8
2023-02-13T03:54:10.307Z,10.1
2023-02-13T03:57:12.277Z,9.7
2023-02-13T04:00:14.233Z,9.6
2023-02-13T04:03:16.195Z,9.9
2023-02-13T04:06:18.183Z,10.4
2023-02-13T04:09:20.142Z,9.3
2023-02-13T04:12:22.096Z,10.4
2023-02-13T04:15:24.051Z,11.6
2023-02-13T04:18:26.004Z,10.1
2023-02-13T04:21:27.968Z,9.8
2023-02-13T04:24:29.936Z,10.7
2023-02-13T04:27:31.891Z,10.1
2023-02-13T04:30:33.897Z,10.3
2023-02-13T04:33:35.821Z,10.8
2023-02-13T04:36:37.776Z,11.5
2023-02-13T04:39:39.730Z,11.3
2023-02-13T04:42:41.719Z,11.3
2023-02-13T04:45:43.731Z,11.3
2023-02-13T04:48:45.647Z,12.2
2023-02-13T04:51:47.611Z,11.1
2023-02-13T04:54:49.563Z,11.4
2023-02-13T04:57:51.518Z,10.6
2023-02-13T05:00:53.487Z,10.3
2023-02-13T05:03:55.465Z,10.7
2023-02-13T05:06:57.400Z,10.4
2023-02-13T05:09:59.367Z,10.5
2023-02-13T05:13:01.335Z,11
2023-02-13T05:16:03.312Z,11.3
2023-02-13T05:19:05.228Z,10.4
2023-02-13T05:22:07.194Z,11.1
2023-02-13T05:25:09.172Z,11.1
2023-02-13T05:28:11.127Z,10.3
2023-02-13T05:31:13.172Z,10.3
2023-02-13T05:34:15.071Z,11.2
2023-02-13T05:37:17.004Z,10
2023-02-13T05:40:18.982Z,10.3
2023-02-13T05:43:20.944Z,10.7
2023-02-13T05:46:22.995Z,12.2
2023-02-13T05:49:24.852Z,11.6
2023-02-13T05:52:26.822Z,11.5
2023-02-13T05:55:28.778Z,10.6
2023-02-13T05:58:30.745Z,10.8
2023-02-13T06:01:32.694Z,11.4
2023-02-13T06:04:34.681Z,11
2023-02-13T06:07:36.645Z,10.7
2023-02-13T06:10:38.609Z,12.2
2023-02-13T06:13:42.647Z,11.9
2023-02-13T06:16:42.517Z,13.2
2023-02-13T06:19:44.478Z,13.3
2023-02-13T06:22:46.431Z,11.9
2023-02-13T06:25:48.395Z,11.7
2023-02-13T06:28:50.358Z,12
2023-02-13T06:31:52.370Z,14.4
2023-02-13T06:34:54.321Z,14.7
2023-02-13T06:37:56.257Z,14.1
2023-02-13T06:40:58.393Z,13.1
2023-02-13T06:44:00.210Z,12.9
2023-02-13T06:47:02.224Z,13.8
2023-02-13T06:50:04.101Z,13.8
2023-02-13T06:53:06.054Z,14.3
2023-02-13T06:56:08.012Z,14.3
2023-02-13T06:59:10.123Z,12.3
2023-02-13T07:02:11.941Z,12.8
2023-02-13T07:05:13.905Z,13.5
2023-02-13T07:08:15.874Z,13.5
2023-02-13T07:11:17.852Z,15.2
2023-02-13T07:14:19.821Z,17
2023-02-13T07:17:21.788Z,15.7
2023-02-13T07:20:23.721Z,14.4
2023-02-13T07:23:25.699Z,13.6
2023-02-13T07:26:27.684Z,14.6
2023-02-13T07:29:29.658Z,15
2023-02-13T07:32:31.618Z,14
2023-02-13T07:35:33.638Z,15
2023-02-13T07:38:35.592Z,14.9
2023-02-13T07:41:37.526Z,13.3
2023-02-13T07:44:39.502Z,14.1
2023-02-13T07:47:41.458Z,13.3
2023-02-13T07:50:43.428Z,15.6
2023-02-13T07:53:45.391Z,14.9
2023-02-13T07:56:47.370Z,14.6
2023-02-13T07:59:49.340Z,15
2023-02-13T08:02:51.297Z,15.6
2023-02-13T08:05:53.259Z,14.9
2023-02-13T08:08:55.237Z,14.6
2023-02-13T08:11:57.177Z,15.4
2023-02-13T08:14:59.180Z,15.3
2023-02-13T08:18:01.130Z,15.3
2023-02-13T08:21:03.095Z,14.7
2023-02-13T08:24:05.067Z,14.5
2023-02-13T08:27:07.015Z,13.7
2023-02-13T08:30:08.961Z,13.4
2023-02-13T08:33:11.029Z,13
2023-02-13T08:36:12.886Z,14.8
2023-02-13T08:39:14.828Z,15.4
2023-02-13T08:42:16.780Z,15
2023-02-13T08:45:18.752Z,15.3
2023-02-13T08:48:20.748Z,14.4
2023-02-13T08:51:22.674Z,14.7
2023-02-13T08:54:24.759Z,14.2
2023-02-13T08:57:26.581Z,14.3
2023-02-13T09:00:28.556Z,14.5
2023-02-13T09:03:30.530Z,14.4
2023-02-13T09:06:32.481Z,16.8
2023-02-13T09:09:34.443Z,14.5
2023-02-13T09:12:36.433Z,15.1
2023-02-13T09:15:38.395Z,14.2
2023-02-13T09:18:40.361Z,14.5
2023-02-13T09:21:42.327Z,12.6
2023-02-13T09:24:44.308Z,12.8
2023-02-13T09:27:46.279Z,13.9
2023-02-13T09:30:48.325Z,12.2
2023-02-13T09:33:50.249Z,11.6
2023-02-13T09:36:52.209Z,11.7
2023-02-13T09:39:54.280Z,12.3
2023-02-13T09:42:56.343Z,11
2023-02-13T09:45:58.381Z,11.1
2023-02-13T09:49:00.058Z,12.3
2023-02-13T09:52:11.028Z,10.9
2023-02-13T09:55:05.477Z,10.5
2023-02-13T09:58:20.071Z,11.2
2023-02-13T10:01:21.679Z,11.7
2023-02-13T10:04:32.516Z,10.4
2023-02-13T10:07:25.825Z,10.7
2023-02-13T10:10:55.394Z,10.8
2023-02-13T10:13:31.411Z,10.7
2023-02-13T10:16:33.604Z,11.2
2023-02-13T10:19:35.683Z,12.6
2023-02-13T10:22:43.153Z,12.1
2023-02-13T10:25:42.841Z,11.8
2023-02-13T10:28:44.874Z,11.4
2023-02-13T10:31:46.838Z,11.5
2023-02-13T10:34:48.747Z,10.1
2023-02-13T10:37:50.687Z,11.6
2023-02-13T10:40:52.640Z,11.6
2023-02-13T10:43:54.618Z,11.6
2023-02-13T10:46:56.687Z,11.8
2023-02-13T10:49:58.550Z,12.1
2023-02-13T10:53:00.517Z,11.4
2023-02-13T10:56:02.551Z,10.3
2023-02-13T10:59:04.449Z,10.8
2023-02-13T11:02:06.426Z,11.7
2023-02-13T11:05:08.386Z,9.7
2023-02-13T11:08:10.341Z,9.5
2023-02-13T11:11:12.298Z,9.6
2023-02-13T11:14:14.268Z,10.1
2023-02-13T11:17:16.287Z,9.4
2023-02-13T11:20:18.195Z,9.2
2023-02-13T11:23:20.207Z,9.6
2023-02-13T11:26:22.139Z,9.4
2023-02-13T11:29:24.114Z,8.3
2023-02-13T11:32:26.168Z,8.5
2023-02-13T11:35:28.070Z,8.1
2023-02-13T11:38:30.895Z,8.5
2023-02-13T11:41:32.061Z,7.8
2023-02-13T11:44:34.024Z,7.6
2023-02-13T11:47:35.995Z,9.1
2023-02-13T11:50:37.944Z,7.3
2023-02-13T11:53:39.883Z,6.7
2023-02-13T11:56:50.257Z,7.9
2023-02-13T11:59:43.838Z,7.2
2023-02-13T12:02:45.822Z,7.8
2023-02-13T12:05:47.751Z,7
2023-02-13T12:08:49.693Z,7.7
2023-02-13T12:11:51.648Z,6.9
2023-02-13T12:14:53.602Z,7.7
2023-02-13T12:17:55.585Z,7.3
2023-02-13T12:20:57.982Z,7.5
2023-02-13T12:23:59.605Z,7
2023-02-13T12:27:01.544Z,7.7
2023-02-13T12:30:03.571Z,6.8
2023-02-13T12:33:05.484Z,6.1
2023-02-13T12:36:07.436Z,7.4
2023-02-13T12:39:09.419Z,6.4
2023-02-13T12:42:11.368Z,6
2023-02-13T12:45:13.353Z,6.6
2023-02-13T12:48:15.318Z,6.7
2023-02-13T12:51:17.326Z,6
2023-02-13T12:54:19.291Z,6.4
2023-02-13T12:57:21.263Z,5.5
2023-02-13T13:00:23.204Z,5.1
2023-02-13T13:03:25.170Z,5.2
2023-02-13T13:06:27.172Z,5.2
2023-02-13T13:09:29.087Z,4.8
2023-02-13T13:12:31.034Z,5.3
2023-02-13T13:15:33.013Z,4.3
2023-02-13T13:18:34.971Z,4.5
2023-02-13T13:21:36.921Z,5.2
2023-02-13T13:24:38.885Z,5
2023-02-13T13:27:40.856Z,4.7
2023-02-13T13:30:42.895Z,4.3
2023-02-13T13:33:44.788Z,3.9
2023-02-13T13:36:46.747Z,3.5
2023-02-13T13:39:48.748Z,3.4
2023-02-13T13:42:50.678Z,3.6
2023-02-13T13:45:52.671Z,3.1
2023-02-13T13:48:54.631Z,3.1
2023-02-13T13:51:56.780Z,3.5
2023-02-13T13:54:58.564Z,3.4
2023-02-13T13:58:00.554Z,3.2
2023-02-13T14:01:02.542Z,2.6
2023-02-13T14:04:04.470Z,3.4
2023-02-13T14:07:06.443Z,3.4
2023-02-13T14:10:08.407Z,4.1
2023-02-13T14:13:10.415Z,3.1
2023-02-13T14:16:12.417Z,2.8
2023-02-13T14:19:14.304Z,2.6
2023-02-13T14:22:16.322Z,2.6
2023-02-13T14:25:18.364Z,2.5
2023-02-13T14:28:20.240Z,3.3
2023-02-13T14:31:22.427Z,2.4
2023-02-13T14:34:24.175Z,2.9
2023-02-13T14:37:26.115Z,2.8
2023-02-13T14:40:28.088Z,2.7
2023-02-13T14:43:30.022Z,3
2023-02-13T14:46:32.049Z,2.6
2023-02-13T14:49:33.971Z,3.3
2023-02-13T14:52:35.945Z,2.5
2023-02-13T14:55:37.907Z,4.1
2023-02-13T14:58:39.855Z,2.9
2023-02-13T15:01:41.842Z,3
2023-02-13T15:04:43.936Z,3.1
2023-02-13T15:07:45.765Z,3.4
2023-02-13T15:10:47.744Z,3.2
2023-02-13T15:13:49.717Z,4.2
2023-02-13T15:16:51.682Z,3.4
2023-02-13T15:19:53.648Z,3.5
2023-02-13T15:22:55.609Z,3.3
2023-02-13T15:25:57.565Z,2.8
2023-02-13T15:28:59.516Z,3.3
2023-02-13T15:32:01.596Z,3.4
2023-02-13T15:35:03.474Z,3.5
2023-02-13T15:38:05.451Z,3.5
2023-02-13T15:41:07.436Z,3.1
2023-02-13T15:44:09.380Z,3.1
2023-02-13T15:47:11.357Z,3.3
2023-02-13T15:50:13.321Z,3
2023-02-13T15:53:15.274Z,3.4
2023-02-13T15:56:17.247Z,3.1
2023-02-13T15:59:19.192Z,2.9
2023-02-13T16:02:21.278Z,2.5
2023-02-13T16:05:38.436Z,2.9
2023-02-13T16:08:25.096Z,2.8
2023-02-13T16:11:27.081Z,2.6
2023-02-13T16:14:29.020Z,2.6
2023-02-13T16:17:31.003Z,2.6
2023-02-13T16:20:32.964Z,2.5
2023-02-13T16:23:34.910Z,2.7
2023-02-13T16:26:36.984Z,2.2
2023-02-13T16:29:38.878Z,2.2
2023-02-13T16:32:40.850Z,2.5
2023-02-13T16:35:42.804Z,2.3
2023-02-13T16:38:44.780Z,2.1
2023-02-13T16:41:46.735Z,2.3
2023-02-13T16:44:48.673Z,2.2
2023-02-13T16:47:50.635Z,2
2023-02-13T16:50:52.590Z,1.7
2023-02-13T16:53:54.559Z,2.3
2023-02-13T16:56:56.598Z,2.1
2023-02-13T16:59:58.478Z,2
2023-02-13T17:03:00.444Z,2.1
2023-02-13T17:06:02.407Z,2.3
2023-02-13T17:09:04.369Z,2.4
2023-02-13T17:12:06.328Z,2.1
2023-02-13T17:15:08.292Z,2.7
2023-02-13T17:18:10.260Z,2.2
2023-02-13T17:21:12.225Z,3.1
2023-02-13T17:24:14.195Z,3
2023-02-13T17:27:16.161Z,2.4
2023-02-13T17:30:18.221Z,2.9
2023-02-13T17:33:20.089Z,3
2023-02-13T17:36:22.051Z,3.3
2023-02-13T17:39:24.004Z,3.7
2023-02-13T17:42:25.981Z,3.1
2023-02-13T17:45:27.930Z,3.1
2023-02-13T17:48:29.894Z,3.1
2023-02-13T17:51:31.837Z,3.6
2023-02-13T17:54:33.816Z,3.6
2023-02-13T17:57:35.799Z,3.2
2023-02-13T18:00:37.785Z,3
2023-02-13T18:03:39.749Z,4
2023-02-13T18:06:41.705Z,3.3
2023-02-13T18:09:43.665Z,3.7
2023-02-13T18:12:45.623Z,4.6
2023-02-13T18:15:47.636Z,4.3
2023-02-13T18:18:49.565Z,4.8
2023-02-13T18:21:51.546Z,4.9
2023-02-13T18:24:53.496Z,5.7
2023-02-13T18:27:55.463Z,5.4
2023-02-13T18:30:57.981Z,6.5
2023-02-13T18:33:59.397Z,7
2023-02-13T18:37:01.349Z,6.1
2023-02-13T18:40:03.330Z,5.4
2023-02-13T18:43:05.282Z,6.6
2023-02-13T18:46:07.276Z,5.7
2023-02-13T18:49:09.227Z,5.4
2023-02-13T18:52:11.172Z,6.4
2023-02-13T18:55:13.149Z,6.1
2023-02-13T18:58:15.092Z,6.6
2023-02-13T19:01:17.076Z,5.6
2023-02-13T19:04:19.033Z,6.3
2023-02-13T19:07:20.983Z,7.2
2023-02-13T19:10:22.941Z,6.5
2023-02-13T19:13:24.886Z,7.1
2023-02-13T19:16:26.835Z,6.7
2023-02-13T19:19:28.817Z,6.7
2023-02-13T19:22:30.781Z,6.4
2023-02-13T19:25:32.748Z,6.6
2023-02-13T19:28:34.698Z,6.5
2023-02-13T19:31:36.855Z,6.8
2023-02-13T19:34:38.620Z,6.8
2023-02-13T19:37:44.023Z,7.5
2023-02-13T19:40:42.558Z,8.2
2023-02-13T19:43:44.515Z,7.5
2023-02-13T19:46:46.550Z,7.3
2023-02-13T19:49:48.446Z,6.8
2023-02-13T19:52:50.454Z,7.1
2023-02-13T19:55:52.383Z,7.3
2023-02-13T19:58:54.353Z,8.1
2023-02-13T20:01:56.330Z,7.6
2023-02-13T20:04:58.242Z,8.2
2023-02-13T20:08:00.187Z,7.7
2023-02-13T20:11:02.149Z,8
2023-02-13T20:14:04.136Z,6.9
2023-02-13T20:17:06.107Z,7.7
2023-02-13T20:20:08.046Z,8
2023-02-13T20:23:09.999Z,8.1
2023-02-13T20:26:11.972Z,8.2
2023-02-13T20:29:13.933Z,8.1
2023-02-13T20:32:15.963Z,8.7
2023-02-13T20:35:17.843Z,8.5
2023-02-13T20:38:19.787Z,8.3
2023-02-13T20:41:21.793Z,7.9
2023-02-13T20:44:23.720Z,9.7
2023-02-13T20:47:25.686Z,8.6
2023-02-13T20:50:27.639Z,8
2023-02-13T20:53:29.584Z,10
2023-02-13T20:56:31.595Z,8.9
2023-02-13T20:59:33.513Z,11.8
2023-02-13T21:02:35.579Z,10.2
2023-02-13T21:05:37.519Z,9.4
2023-02-13T21:08:39.393Z,11.1
2023-02-13T21:11:41.351Z,9.7
2023-02-13T21:14:43.322Z,10.1
2023-02-13T21:17:45.287Z,11.6
2023-02-13T21:20:47.228Z,10.1
2023-02-13T21:23:49.188Z,10.5
2023-02-13T21:26:51.163Z,10.2
2023-02-13T21:29:53.167Z,9.8
2023-02-13T21:32:55.073Z,9.1
2023-02-13T21:35:57.047Z,9.9
2023-02-13T21:38:59.023Z,9.8
2023-02-13T21:42:00.959Z,9
2023-02-13T21:45:02.926Z,10.4
2023-02-13T21:48:04.909Z,9.3
2023-02-13T21:51:06.873Z,9.6
2023-02-13T21:54:08.817Z,9.7
2023-02-13T21:57:10.777Z,11.5
2023-02-13T22:00:12.756Z,11.5
2023-02-13T22:03:14.703Z,12.6
2023-02-13T22:06:16.644Z,12.9
2023-02-13T22:09:18.612Z,11.4
2023-02-13T22:12:20.581Z,11.3
2023-02-13T22:15:22.557Z,13.6
2023-02-13T22:18:24.511Z,10.7
2023-02-13T22:21:26.506Z,11.1
2023-02-13T22:24:28.453Z,12.8
2023-02-13T22:27:30.412Z,12.1
2023-02-13T22:30:32.466Z,13.2
2023-02-13T22:33:34.339Z,11.3
2023-02-13T22:36:36.290Z,11.3
2023-02-13T22:39:38.254Z,10.5
2023-02-13T22:42:40.212Z,11
2023-02-13T22:45:42.167Z,11.5
2023-02-13T22:48:44.131Z,12.6
2023-02-13T22:51:46.066Z,10.8
2023-02-13T22:54:48.041Z,11.9
2023-02-13T22:57:49.974Z,12.5
2023-02-13T23:00:51.964Z,9.9
2023-02-13T23:03:54.024Z,10.7
2023-02-13T23:06:55.864Z,12
2023-02-13T23:09:57.820Z,11.9
2023-02-13T23:12:59.784Z,11.1
2023-02-13T23:16:01.843Z,10.6
2023-02-13T23:19:03.708Z,10.4
2023-02-13T23:22:05.691Z,11.3
2023-02-13T23:25:07.643Z,10
2023-02-13T23:28:09.609Z,10.3
2023-02-13T23:31:11.662Z,10.9
2023-02-13T23:34:13.534Z,11.9
2023-02-13T23:37:15.510Z,10.9
2023-02-13T23:40:17.457Z,12
2023-02-13T23:43:19.433Z,11
2023-02-13T23:46:21.476Z,11.4
2023-02-13T23:49:23.367Z,10.9
2023-02-13T23:52:25.333Z,11.9
2023-02-13T23:55:27.271Z,10.7
2023-02-13T23:58:29.293Z,12.5
